Terminal Aerodrome Forecast
Issued by NWS

Home | Current Version | Previous Version | Text Only | Print | Product List | Glossary On
Versions: 1 2 3 4 5 6 7 8 9 10 11 12 13 14 15 16 17 18 19 20 21 22 23 24 25
000
FTUS41 KALY 231300 AAA
TAFPSF
TAF AMD
KPSF 231321Z 2313/2412 36008G14KT 6SM -RA BR SCT015 OVC030
      TEMPO 2313/2315 2SM +RA BKN008 OVC015
     FM231600 35012G18KT 5SM -RA BR OVC020
     FM240000 33010G16KT 6SM -RA BR OVC025
     FM240800 32010G16KT P6SM -RA OVC030=

USA.gov is the U.S. government's official web portal to all federal, state and local government web resources and services.